Time;durP1;ratioP1;P1;durP2;ratioP2;P2;SDS_P1;SDS_P2;PMS_P1;PMS_P2;Temp;Humidity;BMP_temperature;BMP_pressure;BME280_temperature;BME280_humidity;BME280_pressure;Samples;Min_cycle;Max_cycle;Signal;HPM_P1;HPM_P2
2022/05/12 00:00:54;;;;;;;9.07;2.25;;;22.50;53.40;;;;;;7369924;19;20521;-80
2022/05/12 00:03:26;;;;;;;10.18;2.20;;;22.50;53.40;;;;;;7371447;19;20117;-79
2022/05/12 00:05:55;;;;;;;15.23;2.17;;;22.50;53.40;;;;;;7371100;19;20019;-79
2022/05/12 00:08:23;;;;;;;11.88;2.63;;;22.50;53.40;;;;;;7371310;19;20057;-79
2022/05/12 00:10:52;;;;;;;7.75;1.85;;;22.50;53.40;;;;;;7369666;19;20042;-79
2022/05/12 00:13:21;;;;;;;7.30;2.00;;;22.50;53.40;;;;;;7394048;19;20024;-79
2022/05/12 00:15:52;;;;;;;10.02;2.38;;;22.50;53.30;;;;;;7371365;19;20007;-80
2022/05/12 00:18:21;;;;;;;6.00;1.80;;;22.50;53.30;;;;;;7370518;19;20011;-79
2022/05/12 00:20:53;;;;;;;7.88;2.22;;;22.50;53.40;;;;;;7370241;19;20011;-79
2022/05/12 00:23:22;;;;;;;;;;;22.50;53.40;;;;;;7371736;19;20022;-79
2022/05/12 00:25:52;;;;;;;6.97;1.60;;;22.50;53.40;;;;;;7371291;19;19919;-79
2022/05/12 00:28:22;;;;;;;8.57;1.98;;;22.50;53.10;;;;;;7393074;19;20799;-79
2022/05/12 00:30:53;;;;;;;14.73;2.53;;;22.50;53.20;;;;;;7372774;19;20039;-79
2022/05/12 00:33:25;;;;;;;11.73;2.38;;;22.50;53.30;;;;;;7372180;19;20512;-79
2022/05/12 00:35:58;;;;;;;10.88;2.50;;;22.40;53.40;;;;;;7371879;19;20530;-79
2022/05/12 00:38:27;;;;;;;7.47;2.17;;;22.30;53.50;;;;;;7371534;19;20014;-79
2022/05/12 00:40:55;;;;;;;12.05;2.85;;;22.30;53.70;;;;;;7371605;19;20056;-79
2022/05/12 00:43:43;;;;;;;12.82;2.35;;;22.20;53.80;;;;;;7405223;19;20007;-79
2022/05/12 00:46:14;;;;;;;6.95;2.05;;;22.20;53.90;;;;;;7385553;19;20027;-79
2022/05/12 00:48:43;;;;;;;10.57;3.20;;;22.20;53.90;;;;;;7386283;19;20359;-80
2022/05/12 00:51:17;;;;;;;11.07;2.30;;;22.20;53.90;;;;;;7393958;19;20014;-80
2022/05/12 00:53:48;;;;;;;10.63;2.30;;;22.10;54.00;;;;;;7394398;19;20027;-79
2022/05/12 00:56:21;;;;;;;8.52;2.38;;;22.00;54.10;;;;;;7384170;19;20011;-80
2022/05/12 00:58:53;;;;;;;11.93;2.40;;;22.00;54.20;;;;;;7383079;19;20145;-79
2022/05/12 01:01:22;;;;;;;8.40;1.98;;;22.00;54.10;;;;;;7396686;19;20094;-79
2022/05/12 01:03:52;;;;;;;8.95;2.40;;;22.00;54.00;;;;;;7372235;19;20103;-79
2022/05/12 01:06:23;;;;;;;11.55;2.60;;;21.90;54.10;;;;;;7372073;19;20484;-79
2022/05/12 01:08:52;;;;;;;;;;;21.90;54.20;;;;;;7374679;19;20030;-78
2022/05/12 01:11:23;;;;;;;9.18;2.50;;;21.90;54.30;;;;;;7368947;19;20402;-78
2022/05/12 01:13:56;;;;;;;11.88;2.33;;;21.80;54.10;;;;;;7371127;19;20371;-78
2022/05/12 01:16:45;;;;;;;11.43;2.60;;;21.80;54.00;;;;;;7391682;19;20480;-78
2022/05/12 01:19:17;;;;;;;9.27;2.47;;;21.80;54.00;;;;;;7368856;19;20429;-78
2022/05/12 01:21:49;;;;;;;10.20;2.55;;;21.80;54.00;;;;;;7367668;19;20021;-77
2022/05/12 01:24:24;;;;;;;9.68;2.42;;;21.80;53.90;;;;;;7367522;19;20014;-78
2022/05/12 01:26:53;;;;;;;8.10;2.20;;;21.70;54.00;;;;;;7369026;19;20007;-78
2022/05/12 01:29:22;;;;;;;14.40;2.63;;;21.60;54.10;;;;;;7370114;19;20470;-78
2022/05/12 01:31:51;;;;;;;10.82;2.55;;;21.60;54.20;;;;;;7370589;19;20032;-77
2022/05/12 01:34:21;;;;;;;10.48;2.47;;;21.60;54.30;;;;;;7391406;19;20070;-78
2022/05/12 01:36:49;;;;;;;14.90;3.30;;;21.50;54.50;;;;;;7367905;19;20338;-78
2022/05/12 01:39:21;;;;;;;13.07;3.13;;;21.50;54.80;;;;;;7368530;19;20336;-78
2022/05/12 01:41:49;;;;;;;;;;;21.40;54.90;;;;;;7367532;19;20014;-79
2022/05/12 01:44:18;;;;;;;8.35;2.47;;;21.40;54.90;;;;;;7367529;19;20216;-79
2022/05/12 01:46:48;;;;;;;15.73;3.28;;;21.40;54.70;;;;;;7368903;19;20464;-79
2022/05/12 01:49:17;;;;;;;14.80;3.60;;;21.40;54.90;;;;;;7390870;19;20022;-78
2022/05/12 01:51:46;;;;;;;10.75;3.15;;;21.30;55.00;;;;;;7368156;19;20093;-80
2022/05/12 01:54:14;;;;;;;14.73;3.10;;;21.30;55.20;;;;;;7367710;19;20010;-79
2022/05/12 01:56:46;;;;;;;10.73;2.78;;;21.30;55.00;;;;;;7368709;19;20118;-79
2022/05/12 01:59:14;;;;;;;;;;;21.30;54.90;;;;;;7369489;19;20179;-78
2022/05/12 02:01:43;;;;;;;11.55;3.00;;;21.30;54.60;;;;;;7368222;19;19986;-78
2022/05/12 02:04:12;;;;;;;13.48;3.20;;;21.40;54.50;;;;;;7389612;19;20035;-78
2022/05/12 02:06:40;;;;;;;12.30;2.95;;;21.40;54.40;;;;;;7367593;19;20015;-79
2022/05/12 02:09:10;;;;;;;11.35;2.92;;;21.40;54.50;;;;;;7368296;19;20015;-78
2022/05/12 02:11:39;;;;;;;14.65;3.33;;;21.40;54.50;;;;;;7366069;19;20089;-79
2022/05/12 02:14:10;;;;;;;18.52;3.45;;;21.40;54.50;;;;;;7365932;19;20011;-78
2022/05/12 02:16:39;;;;;;;13.05;3.33;;;21.40;54.40;;;;;;7365622;19;20687;-79
2022/05/12 02:19:10;;;;;;;11.23;2.85;;;21.20;54.30;;;;;;7387370;19;20511;-78
2022/05/12 02:21:39;;;;;;;;;;;21.20;54.50;;;;;;7367816;19;20014;-79
2022/05/12 02:24:09;;;;;;;14.50;3.17;;;21.20;54.50;;;;;;7372815;19;19919;-79
2022/05/12 02:26:38;;;;;;;11.85;2.88;;;21.10;54.20;;;;;;7375998;19;20470;-79
2022/05/12 02:29:09;;;;;;;9.68;2.55;;;21.10;54.20;;;;;;7373611;19;20026;-79
2022/05/12 02:31:38;;;;;;;12.30;2.88;;;21.10;54.20;;;;;;7373604;19;20014;-79
2022/05/12 02:34:07;;;;;;;10.38;2.88;;;21.10;54.10;;;;;;7393756;19;20022;-79
2022/05/12 02:36:36;;;;;;;11.77;2.60;;;21.10;54.00;;;;;;7373317;19;20122;-79
2022/05/12 02:39:04;;;;;;;12.82;2.88;;;21.00;53.80;;;;;;7373561;19;20035;-79
2022/05/12 02:41:33;;;;;;;13.77;3.05;;;21.00;53.90;;;;;;7374518;19;20010;-78
2022/05/12 02:44:02;;;;;;;12.27;2.78;;;21.00;53.90;;;;;;7376018;19;20010;-79
2022/05/12 02:46:33;;;;;;;9.52;2.65;;;21.00;54.00;;;;;;7378629;19;20011;-80
2022/05/12 02:49:02;;;;;;;12.63;2.58;;;21.00;53.80;;;;;;7396848;19;20014;-79
2022/05/12 02:51:31;;;;;;;11.90;2.67;;;21.00;53.80;;;;;;7373718;19;20553;-79
2022/05/12 02:53:59;;;;;;;10.02;2.55;;;21.00;53.50;;;;;;7373958;19;20017;-79
2022/05/12 02:56:28;;;;;;;9.52;2.70;;;21.00;53.40;;;;;;7373078;19;20038;-79
2022/05/12 02:58:57;;;;;;;14.90;2.70;;;20.90;53.40;;;;;;7375395;19;20006;-79
2022/05/12 03:01:26;;;;;;;13.27;2.40;;;20.90;53.10;;;;;;7396237;19;20014;-79
2022/05/12 03:03:57;;;;;;;10.75;2.50;;;20.90;53.10;;;;;;7372522;19;20085;-79
2022/05/12 03:06:26;;;;;;;10.70;2.15;;;20.80;52.90;;;;;;7372628;19;20027;-79
2022/05/12 03:08:55;;;;;;;9.18;2.13;;;20.80;52.90;;;;;;7373619;19;20102;-79
2022/05/12 03:11:23;;;;;;;8.68;2.30;;;20.60;52.80;;;;;;7371975;19;20019;-79
2022/05/12 03:13:52;;;;;;;13.32;2.35;;;20.60;53.00;;;;;;7371717;19;20073;-79
2022/05/12 03:16:22;;;;;;;7.85;2.22;;;20.50;53.00;;;;;;7391988;19;20339;-79
2022/05/12 03:18:53;;;;;;;8.10;2.17;;;20.50;53.20;;;;;;7371818;19;20025;-79
2022/05/12 03:21:24;;;;;;;15.75;2.38;;;20.40;53.50;;;;;;7373827;19;20486;-79
2022/05/12 03:23:53;;;;;;;13.10;2.22;;;20.40;53.30;;;;;;7372684;19;20010;-78
2022/05/12 03:26:23;;;;;;;10.88;2.42;;;20.30;53.40;;;;;;7372071;19;20015;-77
2022/05/12 03:28:51;;;;;;;12.23;2.17;;;20.30;53.40;;;;;;7371590;19;21027;-78
2022/05/12 03:31:20;;;;;;;11.00;2.47;;;20.30;53.50;;;;;;7394450;19;20078;-78
2022/05/12 03:33:49;;;;;;;14.68;2.63;;;20.30;53.60;;;;;;7370385;19;20019;-78
2022/05/12 03:36:18;;;;;;;12.75;2.20;;;20.30;53.60;;;;;;7371577;19;20015;-78
2022/05/12 03:38:49;;;;;;;13.10;2.03;;;20.30;53.40;;;;;;7370973;19;20017;-78
2022/05/12 03:41:18;;;;;;;10.68;2.15;;;20.30;53.30;;;;;;7373290;19;20018;-77
2022/05/12 03:46:30;;;;;;;13.18;2.53;;;20.40;53.20;;;;;;7393502;19;20021;-78
2022/05/12 03:48:58;;;;;;;11.95;2.72;;;20.40;53.00;;;;;;7372075;19;20328;-78
2022/05/12 03:51:27;;;;;;;11.35;2.58;;;20.30;53.00;;;;;;7370769;19;20087;-78
2022/05/12 03:53:59;;;;;;;9.95;2.50;;;20.30;53.10;;;;;;7372272;19;20470;-79
2022/05/12 03:56:28;;;;;;;15.95;3.05;;;20.30;53.00;;;;;;7370232;19;20442;-79
2022/05/12 03:58:57;;;;;;;15.65;2.67;;;20.30;53.10;;;;;;7372934;19;20011;-79
2022/05/12 04:01:26;;;;;;;11.73;2.40;;;20.20;52.90;;;;;;7392096;19;20022;-79
2022/05/12 04:03:54;;;;;;;14.45;2.65;;;20.20;53.00;;;;;;7371580;19;20014;-79
2022/05/12 04:06:23;;;;;;;12.55;2.45;;;20.10;53.00;;;;;;7371201;19;20553;-78
2022/05/12 04:08:52;;;;;;;17.92;2.88;;;20.10;53.20;;;;;;7369585;19;20018;-78
2022/05/12 04:11:23;;;;;;;13.48;2.70;;;20.00;53.30;;;;;;7369550;19;20073;-79
2022/05/12 04:13:52;;;;;;;;;;;20.00;53.30;;;;;;7372417;19;20090;-78
2022/05/12 04:16:22;;;;;;;11.85;2.55;;;20.00;53.40;;;;;;7392353;19;20434;-78
2022/05/12 04:18:51;;;;;;;10.43;2.45;;;20.00;53.40;;;;;;7371379;19;20006;-78
2022/05/12 04:21:20;;;;;;;10.68;2.88;;;19.90;53.40;;;;;;7369964;19;20521;-78
2022/05/12 04:23:48;;;;;;;9.80;2.38;;;19.90;53.60;;;;;;7370206;19;20015;-78
2022/05/12 04:26:17;;;;;;;10.52;2.85;;;19.80;53.60;;;;;;7369518;19;20022;-78
2022/05/12 04:28:48;;;;;;;12.38;2.42;;;19.80;53.60;;;;;;7371337;19;20022;-78
2022/05/12 04:31:17;;;;;;;12.18;2.47;;;19.70;53.90;;;;;;7392228;19;20022;-79
2022/05/12 04:36:27;;;;;;;12.07;2.47;;;19.50;54.00;;;;;;7371148;19;20019;-78
2022/05/12 04:38:57;;;;;;;13.02;2.65;;;19.50;54.10;;;;;;7370408;19;20103;-79
2022/05/12 04:41:26;;;;;;;13.60;2.88;;;19.50;54.30;;;;;;7371143;19;20021;-79
2022/05/12 04:43:58;;;;;;;12.38;3.00;;;19.40;54.40;;;;;;7370819;19;20014;-79
2022/05/12 04:46:27;;;;;;;11.40;2.75;;;19.50;54.30;;;;;;7386564;19;20020;-79
2022/05/12 04:48:56;;;;;;;12.27;3.08;;;19.50;54.30;;;;;;7372382;19;20014;-79
2022/05/12 04:51:25;;;;;;;13.02;2.83;;;19.60;54.20;;;;;;7374015;19;20016;-79
2022/05/12 04:53:53;;;;;;;16.52;2.58;;;19.60;54.10;;;;;;7385519;19;20014;-79
2022/05/12 04:56:22;;;;;;;14.50;2.53;;;19.60;54.00;;;;;;7388718;19;20015;-79
2022/05/12 04:58:51;;;;;;;13.35;2.50;;;19.60;54.00;;;;;;7378113;19;20135;-79
2022/05/12 05:01:22;;;;;;;14.40;3.03;;;19.70;54.10;;;;;;7397225;19;20044;-78
2022/05/12 05:03:51;;;;;;;;;;;19.70;54.00;;;;;;7373671;19;20014;-79
2022/05/12 05:06:19;;;;;;;7.90;2.20;;;19.70;54.10;;;;;;7371133;19;19931;-79
2022/05/12 05:08:48;;;;;;;17.05;2.40;;;19.80;54.10;;;;;;7372008;19;20085;-79
2022/05/12 05:11:17;;;;;;;12.93;2.17;;;19.90;54.20;;;;;;7369976;19;20102;-78
2022/05/12 05:13:46;;;;;;;15.13;2.80;;;19.90;54.10;;;;;;7369539;19;20021;-79
2022/05/12 05:16:14;;;;;;;11.85;2.40;;;19.90;53.90;;;;;;7391618;19;20086;-79
2022/05/12 05:18:46;;;;;;;13.10;2.72;;;20.00;53.70;;;;;;7369156;19;20056;-79
2022/05/12 05:21:18;;;;;;;10.20;2.55;;;20.00;53.60;;;;;;7368803;19;20015;-79
2022/05/12 05:23:46;;;;;;;8.90;1.98;;;20.10;53.60;;;;;;7370365;19;20019;-79
2022/05/12 05:26:15;;;;;;;13.35;2.45;;;20.10;53.60;;;;;;7368872;19;20086;-78
2022/05/12 05:28:44;;;;;;;12.32;2.55;;;20.20;53.40;;;;;;7368929;19;20018;-79
2022/05/12 05:31:13;;;;;;;15.98;2.20;;;20.20;53.20;;;;;;7388043;19;20010;-78
2022/05/12 05:33:41;;;;;;;18.45;2.95;;;20.20;53.10;;;;;;7369062;19;20029;-80
2022/05/12 05:36:13;;;;;;;17.15;2.45;;;20.10;52.80;;;;;;7369446;19;20475;-78
2022/05/12 05:38:41;;;;;;;13.50;3.25;;;20.00;53.10;;;;;;7368951;19;20046;-79
2022/05/12 05:41:10;;;;;;;14.65;2.60;;;19.90;53.30;;;;;;7367393;19;20010;-78
2022/05/12 05:43:39;;;;;;;11.32;2.55;;;19.80;53.70;;;;;;7369144;19;20018;-77
2022/05/12 05:46:09;;;;;;;10.88;2.42;;;19.80;53.80;;;;;;7389251;19;20046;-78
2022/05/12 05:48:38;;;;;;;18.20;3.45;;;19.80;53.90;;;;;;7368480;19;20366;-78
2022/05/12 05:53:50;;;;;;;17.67;2.45;;;19.80;53.60;;;;;;7368973;19;20021;-78
2022/05/12 05:56:20;;;;;;;11.35;2.10;;;19.80;53.80;;;;;;7366933;19;20024;-79
2022/05/12 05:58:49;;;;;;;13.18;2.15;;;19.80;54.20;;;;;;7363802;19;20014;-78
2022/05/12 06:01:18;;;;;;;14.27;2.70;;;19.80;54.00;;;;;;7387939;19;20158;-78
2022/05/12 06:03:47;;;;;;;11.38;2.53;;;19.90;54.00;;;;;;7364869;19;20044;-79
2022/05/12 06:06:16;;;;;;;14.05;2.63;;;19.90;54.00;;;;;;7364926;19;20018;-77
2022/05/12 06:08:46;;;;;;;13.77;2.80;;;19.90;53.70;;;;;;7365796;19;20018;-78
2022/05/12 06:11:17;;;;;;;14.70;2.33;;;19.90;53.30;;;;;;7365490;19;20487;-78
2022/05/12 06:13:47;;;;;;;10.82;2.38;;;19.90;53.60;;;;;;7367107;19;20011;-78
2022/05/12 06:16:16;;;;;;;10.98;2.85;;;19.80;53.40;;;;;;7385961;19;20019;-78
2022/05/12 06:18:46;;;;;;;13.40;2.65;;;19.80;53.60;;;;;;7366140;19;20007;-79
2022/05/12 06:21:16;;;;;;;13.40;3.05;;;19.80;53.60;;;;;;7366609;19;20580;-79
2022/05/12 06:23:46;;;;;;;11.95;2.40;;;19.70;53.60;;;;;;7366744;19;20018;-78
2022/05/12 06:26:19;;;;;;;16.83;3.05;;;19.80;53.70;;;;;;7365899;19;20439;-78
2022/05/12 06:28:48;;;;;;;13.50;3.10;;;19.90;53.60;;;;;;7364002;19;20029;-78
2022/05/12 06:31:23;;;;;;;11.38;2.53;;;20.00;53.40;;;;;;7387639;19;20089;-78
2022/05/12 06:33:52;;;;;;;14.65;2.92;;;20.10;53.40;;;;;;7365733;19;20078;-79
2022/05/12 06:36:22;;;;;;;12.82;2.50;;;20.10;53.40;;;;;;7365261;19;20037;-79
2022/05/12 06:38:51;;;;;;;11.70;2.80;;;20.20;53.20;;;;;;7365114;19;20018;-79
2022/05/12 06:41:23;;;;;;;14.93;3.55;;;20.20;53.00;;;;;;7363591;19;20074;-78
2022/05/12 06:43:52;;;;;;;18.90;3.42;;;20.20;53.00;;;;;;7363943;19;20026;-79
2022/05/12 06:46:22;;;;;;;13.27;2.60;;;20.30;53.10;;;;;;7385491;19;20011;-78
2022/05/12 06:48:54;;;;;;;13.57;2.70;;;20.30;53.50;;;;;;7363392;19;20010;-79
2022/05/12 06:51:23;;;;;;;14.48;2.50;;;20.30;52.40;;;;;;7365786;19;20106;-77
2022/05/12 06:53:51;;;;;;;10.27;2.10;;;20.30;52.10;;;;;;7364348;19;20034;-78
2022/05/12 06:56:23;;;;;;;13.38;3.10;;;20.40;52.00;;;;;;7362691;19;20046;-78
2022/05/12 06:58:51;;;;;;;;;;;20.40;52.00;;;;;;7364042;19;20018;-77
2022/05/12 07:01:20;;;;;;;19.70;2.72;;;20.50;52.10;;;;;;7386732;19;19931;-78
2022/05/12 07:03:53;;;;;;;10.38;3.30;;;20.60;52.30;;;;;;7365691;19;20105;-77
2022/05/12 07:06:21;;;;;;;11.40;2.00;;;20.60;52.10;;;;;;7361589;19;20018;-76
2022/05/12 07:08:51;;;;;;;11.02;2.45;;;20.70;51.90;;;;;;7365675;19;20015;-77
2022/05/12 07:11:22;;;;;;;13.15;2.70;;;20.70;51.70;;;;;;7371361;19;20342;-78
2022/05/12 07:13:52;;;;;;;13.88;2.70;;;20.70;51.20;;;;;;7372368;19;20022;-78
2022/05/12 07:16:20;;;;;;;9.73;1.98;;;20.70;51.00;;;;;;7390176;19;20462;-77
2022/05/12 07:18:50;;;;;;;11.60;2.15;;;20.80;51.00;;;;;;7372472;19;20015;-78
2022/05/12 07:26:44;;;;;;;12.70;2.22;;;20.80;50.80;;;;;;7372020;19;20041;-78
2022/05/12 07:29:14;;;;;;;12.20;2.40;;;20.80;50.90;;;;;;7369214;19;20022;-78
2022/05/12 07:31:44;;;;;;;8.50;1.95;;;20.80;50.80;;;;;;7372217;19;20094;-78
2022/05/12 07:34:13;;;;;;;10.88;2.05;;;20.90;50.60;;;;;;7393365;19;20014;-78
2022/05/12 07:36:44;;;;;;;12.30;2.50;;;20.90;49.80;;;;;;7370106;19;20336;-78
2022/05/12 07:39:14;;;;;;;8.65;2.42;;;20.90;50.50;;;;;;7370723;19;20070;-78
2022/05/12 07:41:45;;;;;;;3.95;1.20;;;20.90;49.70;;;;;;7370226;19;20022;-78
2022/05/12 07:44:16;;;;;;;;;;;20.80;47.90;;;;;;7370234;19;20091;-78
2022/05/12 07:46:46;;;;;;;7.60;1.52;;;20.80;46.50;;;;;;7368226;19;19915;-78
2022/05/12 07:49:19;;;;;;;8.10;2.13;;;20.80;46.70;;;;;;7393294;19;20376;-78
2022/05/12 07:51:48;;;;;;;9.88;1.90;;;20.70;47.00;;;;;;7370759;19;20300;-78
2022/05/12 07:54:16;;;;;;;9.43;1.90;;;20.80;47.60;;;;;;7371227;19;20074;-79
2022/05/12 07:56:48;;;;;;;8.90;1.90;;;20.80;47.70;;;;;;7372692;19;20010;-78
2022/05/12 07:59:16;;;;;;;11.60;1.75;;;20.80;48.40;;;;;;7371139;19;20006;-78
2022/05/12 08:01:45;;;;;;;9.63;2.42;;;20.80;48.30;;;;;;7371685;19;20069;-78
2022/05/12 08:04:14;;;;;;;9.80;2.22;;;20.90;48.50;;;;;;7392711;19;20474;-79
2022/05/12 08:06:44;;;;;;;13.55;2.00;;;20.90;47.90;;;;;;7367566;19;20018;-79
2022/05/12 08:09:14;;;;;;;9.30;1.73;;;20.80;48.10;;;;;;7370862;19;20052;-78
2022/05/12 08:11:44;;;;;;;15.18;2.58;;;20.90;48.50;;;;;;7369724;19;20015;-78
2022/05/12 08:14:15;;;;;;;8.15;2.00;;;21.00;48.80;;;;;;7368268;19;20015;-79
2022/05/12 08:16:46;;;;;;;14.05;2.33;;;21.10;48.80;;;;;;7368416;19;20021;-79
2022/05/12 08:19:14;;;;;;;11.07;1.87;;;21.20;48.80;;;;;;7390875;19;20038;-78
2022/05/12 08:21:43;;;;;;;8.55;2.00;;;21.30;48.80;;;;;;7368666;19;20247;-78
2022/05/12 08:24:12;;;;;;;12.70;1.73;;;21.20;48.90;;;;;;7369097;19;20038;-78
2022/05/12 08:26:42;;;;;;;13.15;2.20;;;21.20;48.60;;;;;;7369498;19;20092;-78
2022/05/12 08:29:11;;;;;;;12.40;2.23;;;21.30;48.60;;;;;;7370751;19;20017;-78
2022/05/12 08:31:43;;;;;;;12.07;1.92;;;21.30;48.70;;;;;;7368512;19;20063;-78
2022/05/12 08:34:11;;;;;;;;;;;21.20;47.70;;;;;;7391418;19;20098;-79
2022/05/12 08:36:40;;;;;;;14.23;2.25;;;21.20;47.80;;;;;;7368668;19;19934;-78
2022/05/12 08:39:08;;;;;;;11.82;1.85;;;21.20;47.80;;;;;;7368648;19;20010;-79
2022/05/12 08:41:46;;;;;;;10.88;2.08;;;21.10;46.40;;;;;;7369718;19;20010;-79
2022/05/12 08:44:20;;;;;;;8.05;1.50;;;21.10;46.40;;;;;;7368889;19;20106;-79
2022/05/12 08:46:56;;;;;;;9.13;1.83;;;21.00;46.40;;;;;;7367748;19;20463;-79
2022/05/12 08:49:30;;;;;;;9.07;1.70;;;21.00;46.60;;;;;;7391028;19;20102;-78
2022/05/12 08:52:10;;;;;;;10.43;2.00;;;21.10;47.40;;;;;;7373929;19;20023;-79
2022/05/12 08:54:42;;;;;;;5.93;1.88;;;21.10;47.40;;;;;;7384866;19;20007;-79
2022/05/12 08:57:30;;;;;;;8.93;2.10;;;21.30;47.50;;;;;;7387747;19;20019;-78
2022/05/12 09:00:00;;;;;;;13.00;1.95;;;21.40;47.60;;;;;;7374640;19;20014;-78
2022/05/12 09:02:43;;;;;;;9.23;2.00;;;21.40;47.20;;;;;;7375200;19;20467;-79
2022/05/12 09:05:13;;;;;;;6.47;1.67;;;21.50;47.10;;;;;;7370822;19;20082;-78
2022/05/12 09:07:47;;;;;;;13.38;2.20;;;21.50;47.50;;;;;;7368823;19;20014;-77
2022/05/12 09:10:28;;;;;;;10.45;2.00;;;21.60;48.00;;;;;;7389698;19;20376;-78
2022/05/12 09:13:01;;;;;;;10.93;1.95;;;21.60;47.50;;;;;;7368754;19;20010;-78
2022/05/12 09:15:34;;;;;;;11.02;2.08;;;21.50;47.40;;;;;;7367567;19;20006;-78
2022/05/12 09:18:18;;;;;;;9.98;2.22;;;21.50;47.60;;;;;;7367797;19;20038;-78
2022/05/12 09:20:51;;;;;;;8.23;2.03;;;21.40;48.10;;;;;;7367736;19;20049;-79
2022/05/12 09:23:24;;;;;;;9.73;2.38;;;21.50;48.10;;;;;;7368205;19;20122;-78
2022/05/12 09:25:53;;;;;;;11.70;2.60;;;21.60;47.70;;;;;;7365167;19;20442;-78
2022/05/12 09:28:29;;;;;;;13.68;2.42;;;21.70;47.20;;;;;;7389757;19;20015;-79
2022/05/12 09:31:02;;;;;;;8.43;1.70;;;21.70;47.60;;;;;;7368936;19;20022;-81
2022/05/12 09:33:40;;;;;;;23.33;13.90;;;21.80;47.40;;;;;;7367851;19;20082;-81
2022/05/12 09:36:16;;;;;;;32.78;17.40;;;21.90;47.00;;;;;;7368693;19;20026;-81
2022/05/12 09:38:46;;;;;;;14.90;4.15;;;22.00;47.00;;;;;;7364181;19;20020;-80
2022/05/12 09:41:21;;;;;;;9.32;2.55;;;22.00;47.10;;;;;;7379761;19;20010;-90
2022/05/12 09:43:52;;;;;;;13.00;2.40;;;21.90;47.10;;;;;;7349095;19;20035;-88
2022/05/12 09:46:29;;;;;;;12.20;3.03;;;21.90;47.30;;;;;;7400016;19;20031;-90
2022/05/12 09:49:21;;;;;;;10.90;2.42;;;21.90;47.10;;;;;;7384864;19;20560;-87
2022/05/12 09:51:50;;;;;;;12.15;2.83;;;21.90;47.30;;;;;;7378930;19;20058;-88
2022/05/12 09:54:26;;;;;;;6.85;1.77;;;22.10;47.40;;;;;;7379761;19;20015;-87
2022/05/12 09:57:05;;;;;;;9.50;2.10;;;22.10;46.80;;;;;;7376818;19;20506;-88
2022/05/12 10:08:21;;;;;;;7.05;1.98;;;22.10;46.10;;;;;;7375330;19;20014;-91
2022/05/12 10:10:53;;;;;;;9.20;1.80;;;22.10;46.50;;;;;;7387458;19;20014;-90
2022/05/12 10:13:28;;;;;;;13.43;2.40;;;22.30;46.50;;;;;;7400969;19;20078;-87
2022/05/12 10:15:58;;;;;;;15.65;2.22;;;22.20;46.60;;;;;;7380334;19;20014;-88
2022/05/12 10:18:32;;;;;;;10.75;1.63;;;22.10;46.50;;;;;;7380819;19;20032;-88
2022/05/12 10:21:15;;;;;;;10.60;1.98;;;22.10;47.00;;;;;;7380429;19;20028;-89
2022/05/12 10:23:56;;;;;;;6.68;1.65;;;22.00;46.50;;;;;;7378496;19;20015;-89
2022/05/12 10:26:32;;;;;;;9.95;1.45;;;22.10;46.50;;;;;;7383753;19;20023;-89
2022/05/12 10:29:05;;;;;;;8.25;1.75;;;22.20;45.90;;;;;;7383629;19;20017;-89
2022/05/12 10:31:39;;;;;;;3.78;1.50;;;22.40;45.90;;;;;;7382276;19;20011;-89
2022/05/12 10:34:27;;;;;;;16.63;2.45;;;22.40;45.70;;;;;;7403810;19;20019;-90
2022/05/12 10:37:06;;;;;;;8.13;1.92;;;22.50;45.70;;;;;;7382048;19;20011;-86
2022/05/12 10:39:43;;;;;;;10.23;1.73;;;22.50;45.60;;;;;;7375342;19;20023;-87
2022/05/12 10:42:25;;;;;;;9.73;1.95;;;22.60;45.80;;;;;;7371811;19;20010;-87
2022/05/12 10:45:16;;;;;;;6.47;1.70;;;22.80;45.00;;;;;;7375054;19;20014;-87
2022/05/12 10:48:05;;;;;;;5.28;1.50;;;23.00;45.00;;;;;;7377132;19;20120;-87
2022/05/12 10:50:39;;;;;;;7.45;1.80;;;23.20;44.70;;;;;;7381881;19;20090;-86
2022/05/12 10:53:24;;;;;;;9.52;1.83;;;23.40;44.10;;;;;;7376160;19;20027;-87
2022/05/12 10:56:04;;;;;;;4.93;1.50;;;23.50;43.80;;;;;;7375656;19;20022;-88
2022/05/12 10:58:38;;;;;;;4.05;1.30;;;23.50;43.40;;;;;;7375454;19;20086;-86
2022/05/12 11:01:16;;;;;;;10.90;1.73;;;23.50;42.90;;;;;;7400299;19;20095;-90
2022/05/12 11:03:50;;;;;;;7.97;1.40;;;23.50;43.20;;;;;;7377658;19;20007;-89
2022/05/12 11:06:24;;;;;;;6.10;1.67;;;23.50;43.30;;;;;;7375727;19;20085;-90
2022/05/12 11:08:59;;;;;;;5.95;1.50;;;23.50;43.40;;;;;;7377869;19;20078;-90
2022/05/12 11:11:34;;;;;;;9.93;1.65;;;23.50;44.00;;;;;;7382349;19;20065;-90
2022/05/12 11:16:46;;;;;;;7.20;1.45;;;23.60;44.30;;;;;;7330324;19;20038;-89
2022/05/12 11:19:20;;;;;;;8.07;1.67;;;23.70;44.10;;;;;;7397479;19;20084;-92
2022/05/12 11:22:04;;;;;;;5.03;1.30;;;23.80;43.90;;;;;;7401224;19;20007;-90
2022/05/12 11:24:43;;;;;;;9.15;2.33;;;23.90;43.50;;;;;;7372116;19;20033;-81
2022/05/12 11:27:29;;;;;;;35.13;21.00;;;24.00;42.90;;;;;;7373661;19;20028;-84
2022/05/12 11:30:28;;;;;;;42.72;26.55;;;24.00;42.90;;;;;;7374861;19;20018;-82
2022/05/12 11:33:11;;;;;;;12.95;5.82;;;24.10;43.40;;;;;;7374646;19;20018;-85
2022/05/12 11:35:43;;;;;;;12.68;4.47;;;24.10;42.90;;;;;;7374060;19;20070;-82
2022/05/12 11:38:33;;;;;;;7.25;2.80;;;24.10;42.80;;;;;;7376659;19;20014;-83
2022/05/12 11:41:04;;;;;;;8.82;1.60;;;24.00;42.40;;;;;;7379314;19;20550;-86
2022/05/12 11:46:58;;;;;;;9.73;2.15;;;23.80;42.70;;;;;;7398277;19;20090;-83
2022/05/12 11:49:40;;;;;;;10.10;1.55;;;23.70;43.50;;;;;;7272479;19;2004487;-84
2022/05/12 11:52:37;;;;;;;10.35;1.75;;;23.50;43.50;;;;;;7397916;19;20461;-83
2022/05/12 11:55:11;;;;;;;4.22;1.40;;;23.50;44.30;;;;;;7371019;19;20510;-82
2022/05/12 11:57:45;;;;;;;6.47;1.92;;;23.60;44.70;;;;;;7373434;19;20011;-82
2022/05/12 12:03:55;;;;;;;6.20;1.58;;;23.60;44.00;;;;;;7381562;19;20068;-80
2022/05/12 12:06:54;;;;;;;8.35;3.70;;;23.60;44.10;;;;;;7376018;19;20021;-80
2022/05/12 12:09:56;;;;;;;11.10;3.05;;;23.60;43.60;;;;;;7375191;19;20015;-80
2022/05/12 12:13:02;;;;;;;6.63;1.70;;;23.70;43.70;;;;;;7371480;19;20018;-78
2022/05/12 12:16:07;;;;;;;12.13;1.95;;;23.80;43.50;;;;;;7368387;19;20022;-78
2022/05/12 12:18:58;;;;;;;7.15;1.85;;;23.90;43.20;;;;;;7368755;19;20018;-78
2022/05/12 12:22:15;;;;;;;9.07;1.65;;;23.90;44.10;;;;;;7369799;19;20451;-77
2022/05/12 12:25:01;;;;;;;4.60;1.30;;;23.80;43.20;;;;;;7370219;19;20395;-77
2022/05/12 12:27:56;;;;;;;7.25;1.73;;;24.00;43.00;;;;;;7367641;19;20648;-77
2022/05/12 12:30:54;;;;;;;7.20;1.70;;;24.10;43.00;;;;;;7368922;19;20528;-85
2022/05/12 12:33:43;;;;;;;7.43;1.50;;;24.20;42.90;;;;;;7371052;19;20041;-85
2022/05/12 12:36:48;;;;;;;6.78;1.52;;;24.30;42.40;;;;;;7372834;19;20044;-85
2022/05/12 12:39:33;;;;;;;6.18;1.55;;;24.30;42.30;;;;;;7371463;19;20006;-84
2022/05/12 12:42:11;;;;;;;7.30;1.73;;;24.20;42.70;;;;;;7371938;19;20010;-85
2022/05/12 12:44:45;;;;;;;5.80;1.63;;;24.20;42.60;;;;;;7371654;19;20125;-84
2022/05/12 12:47:27;;;;;;;7.15;1.58;;;24.20;42.90;;;;;;7371905;19;20025;-85
2022/05/12 12:50:06;;;;;;;10.23;1.30;;;24.00;42.90;;;;;;7374996;19;20031;-84
2022/05/12 12:52:42;;;;;;;4.05;1.40;;;23.80;43.60;;;;;;7379372;19;20014;-82
2022/05/12 12:58:02;;;;;;;9.70;1.73;;;23.90;42.80;;;;;;7399790;19;20064;-85
2022/05/12 13:00:35;;;;;;;8.38;1.38;;;24.10;42.70;;;;;;7387658;19;20054;-85
2022/05/12 13:03:09;;;;;;;6.18;1.48;;;24.20;42.60;;;;;;7380509;19;20014;-84
2022/05/12 13:05:39;;;;;;;11.15;1.27;;;24.10;43.00;;;;;;7376669;19;20019;-84
2022/05/12 13:08:10;;;;;;;5.97;1.50;;;24.00;42.90;;;;;;7371156;19;20014;-84
2022/05/12 13:10:49;;;;;;;7.95;1.42;;;24.10;42.90;;;;;;7371395;19;20019;-84
2022/05/12 13:13:19;;;;;;;4.20;1.30;;;24.20;42.60;;;;;;7391819;19;20554;-85
2022/05/12 13:15:48;;;;;;;9.20;1.73;;;24.30;42.30;;;;;;7372774;19;20419;-85
2022/05/12 13:18:27;;;;;;;5.65;1.30;;;24.20;42.90;;;;;;7370794;19;20010;-84
2022/05/12 13:20:56;;;;;;;9.10;1.60;;;24.20;42.20;;;;;;7371663;19;20015;-84
2022/05/12 13:23:28;;;;;;;5.10;1.77;;;24.30;42.40;;;;;;7369970;19;20015;-84
2022/05/12 13:26:00;;;;;;;8.55;1.50;;;24.30;42.00;;;;;;7372355;19;20027;-86
2022/05/12 13:28:30;;;;;;;9.40;1.63;;;24.30;42.20;;;;;;7392029;19;20022;-84
2022/05/12 13:31:16;;;;;;;13.55;1.85;;;24.30;42.20;;;;;;7371573;19;20089;-85
2022/05/12 13:34:06;;;;;;;6.55;1.65;;;24.30;41.30;;;;;;7369033;19;20014;-84
2022/05/12 13:36:46;;;;;;;5.45;1.40;;;24.30;41.50;;;;;;7370303;19;20394;-85
2022/05/12 13:39:31;;;;;;;4.67;1.30;;;24.20;42.30;;;;;;7368556;19;20422;-84
2022/05/12 13:42:04;;;;;;;5.93;1.50;;;24.10;42.30;;;;;;7370381;19;20027;-84
2022/05/12 13:44:36;;;;;;;3.95;1.25;;;24.20;42.50;;;;;;7370880;19;20043;-84
2022/05/12 13:47:09;;;;;;;4.65;1.40;;;24.20;42.60;;;;;;7371360;19;20011;-87